createdAt,value
2019-02-05T00:01:18.662Z,0.70
2019-02-05T00:03:46.400Z,0.80
2019-02-05T00:06:14.362Z,0.70
2019-02-05T00:08:42.132Z,0.80
2019-02-05T00:11:09.888Z,0.80
2019-02-05T00:13:37.645Z,0.80
2019-02-05T00:16:05.532Z,0.70
2019-02-05T00:18:33.319Z,0.70
2019-02-05T00:21:01.274Z,0.70
2019-02-05T00:23:29.446Z,0.70
2019-02-05T00:26:05.862Z,0.70
2019-02-05T00:28:27.063Z,0.70
2019-02-05T00:30:55.124Z,0.60
2019-02-05T00:33:22.874Z,0.60
2019-02-05T00:35:50.653Z,0.60
2019-02-05T00:38:18.429Z,0.60
2019-02-05T00:40:47.456Z,0.50
2019-02-05T00:43:15.211Z,0.50
2019-02-05T00:45:42.960Z,0.50
2019-02-05T00:48:10.931Z,0.50
2019-02-05T00:50:38.888Z,0.40
2019-02-05T00:53:06.827Z,0.40
2019-02-05T00:55:34.587Z,0.40
2019-02-05T00:58:03.054Z,0.50
2019-02-05T01:00:32.497Z,0.40
2019-02-05T01:03:00.873Z,0.40
2019-02-05T01:05:29.044Z,0.30
2019-02-05T01:07:56.886Z,0.30
2019-02-05T01:10:25.881Z,0.20
2019-02-05T01:12:54.614Z,0.30
2019-02-05T01:15:23.041Z,0.30
2019-02-05T01:17:51.426Z,0.30
2019-02-05T01:20:19.643Z,0.20
2019-02-05T01:22:48.074Z,0.20
2019-02-05T01:25:16.686Z,0.20
2019-02-05T01:27:44.557Z,0.20
2019-02-05T01:30:23.811Z,0.20
2019-02-05T01:32:51.733Z,0.30
2019-02-05T01:35:19.724Z,0.30
2019-02-05T01:37:47.746Z,0.30
2019-02-05T01:40:18.288Z,0.40
2019-02-05T01:42:46.034Z,0.40
2019-02-05T01:45:16.470Z,0.40
2019-02-05T01:47:44.677Z,0.40
2019-02-05T01:50:18.927Z,0.40
2019-02-05T01:52:49.818Z,0.30
2019-02-05T01:55:18.010Z,0.30
2019-02-05T01:57:45.929Z,0.40
2019-02-05T02:00:17.954Z,0.40
2019-02-05T02:02:45.898Z,0.40
2019-02-05T02:05:14.152Z,0.40
2019-02-05T02:07:42.046Z,0.40
2019-02-05T02:10:13.986Z,0.50
2019-02-05T02:12:41.830Z,0.50
2019-02-05T02:15:10.325Z,0.40
2019-02-05T02:17:38.076Z,0.40
2019-02-05T02:20:08.800Z,0.40
2019-02-05T02:22:36.910Z,0.50
2019-02-05T02:25:05.930Z,0.40
2019-02-05T02:27:33.967Z,0.40
2019-02-05T02:30:01.954Z,0.40
2019-02-05T02:32:29.677Z,0.50
2019-02-05T02:34:57.464Z,0.40
2019-02-05T02:37:25.375Z,0.40
2019-02-05T02:39:53.295Z,0.40
2019-02-05T02:42:21.067Z,0.40
2019-02-05T02:44:48.943Z,0.40
2019-02-05T02:47:16.690Z,0.40
2019-02-05T02:49:44.563Z,0.40
2019-02-05T02:52:12.458Z,0.40
2019-02-05T02:54:40.190Z,0.40
2019-02-05T02:57:08.010Z,0.40
2019-02-05T02:59:35.924Z,0.50
2019-02-05T03:02:03.894Z,0.50
2019-02-05T03:04:31.754Z,0.50
2019-02-05T03:06:59.509Z,0.50
2019-02-05T03:09:27.252Z,0.50
2019-02-05T03:11:55.045Z,0.50
2019-02-05T03:14:22.799Z,0.50
2019-02-05T03:16:50.621Z,0.50
2019-02-05T03:19:18.922Z,0.60
2019-02-05T03:21:46.743Z,0.60
2019-02-05T03:24:14.685Z,0.60
2019-02-05T03:26:42.442Z,0.60
2019-02-05T03:29:10.344Z,0.70
2019-02-05T03:31:38.201Z,0.70
2019-02-05T03:34:05.968Z,0.70
2019-02-05T03:36:33.726Z,0.80
2019-02-05T03:39:01.470Z,0.70
2019-02-05T03:41:29.246Z,0.80
2019-02-05T03:43:57.146Z,0.70
2019-02-05T03:46:25.102Z,0.70
2019-02-05T03:48:53.728Z,0.70
2019-02-05T03:51:38.756Z,0.70
2019-02-05T03:55:14.558Z,0.70
2019-02-05T03:58:30.599Z,0.60
2019-02-05T04:01:41.566Z,0.60
2019-02-05T04:05:08.242Z,0.50
2019-02-05T04:08:31.133Z,0.50
2019-02-05T04:11:53.948Z,0.40
2019-02-05T04:15:39.260Z,0.50
2019-02-05T04:19:13.934Z,0.40
2019-02-05T04:22:18.099Z,0.40
2019-02-05T04:25:32.488Z,0.40
2019-02-05T04:28:51.813Z,0.50
2019-02-05T04:32:10.045Z,0.50
2019-02-05T04:36:02.959Z,0.60
2019-02-05T04:39:05.343Z,0.70
2019-02-05T04:42:07.429Z,0.80
2019-02-05T04:45:51.361Z,0.80
2019-02-05T04:49:38.137Z,0.80
2019-02-05T04:52:49.328Z,0.90
2019-02-05T04:56:17.278Z,0.90
2019-02-05T04:59:54.172Z,0.90
2019-02-05T05:03:24.968Z,0.80
2019-02-05T05:06:35.171Z,0.80
2019-02-05T05:09:30.515Z,0.70
2019-02-05T05:11:58.266Z,0.70
2019-02-05T05:14:26.164Z,0.70
2019-02-05T05:16:54.140Z,0.80
2019-02-05T05:19:22.607Z,0.80
2019-02-05T05:21:50.785Z,0.80
2019-02-05T05:24:18.787Z,0.80
2019-02-05T05:26:46.772Z,0.80
2019-02-05T05:29:14.695Z,0.80
2019-02-05T05:31:42.675Z,0.80
2019-02-05T05:34:10.431Z,0.80
2019-02-05T05:36:47.414Z,0.90
2019-02-05T05:39:15.237Z,0.90
2019-02-05T05:41:43.027Z,0.90
2019-02-05T05:44:10.836Z,0.90
2019-02-05T05:46:39.753Z,0.90
2019-02-05T05:49:07.659Z,0.90
2019-02-05T05:51:35.420Z,0.90
2019-02-05T05:54:03.508Z,0.90
2019-02-05T05:56:31.354Z,0.90
2019-02-05T05:58:59.100Z,0.90
2019-02-05T06:01:26.864Z,0.80
2019-02-05T06:03:54.628Z,0.90
2019-02-05T06:06:23.172Z,1.00
2019-02-05T06:08:51.412Z,1.00
2019-02-05T06:11:19.477Z,1.00
2019-02-05T06:13:47.272Z,1.10
2019-02-05T06:16:15.024Z,1.00
2019-02-05T06:18:43.000Z,1.10
2019-02-05T06:21:13.622Z,1.00
2019-02-05T06:23:40.512Z,1.00
2019-02-05T06:26:08.276Z,1.00
2019-02-05T06:28:36.388Z,1.00
2019-02-05T06:31:04.231Z,1.10
2019-02-05T06:33:32.021Z,1.10
2019-02-05T06:35:59.979Z,1.10
2019-02-05T06:38:27.875Z,1.10
2019-02-05T06:40:55.614Z,1.20
2019-02-05T06:43:23.399Z,1.20
2019-02-05T06:45:51.190Z,1.20
2019-02-05T06:48:18.971Z,1.20
2019-02-05T06:50:49.104Z,1.30
2019-02-05T06:53:16.936Z,1.30
2019-02-05T06:55:44.909Z,1.40
2019-02-05T06:58:12.771Z,1.50
2019-02-05T07:00:40.533Z,1.50
2019-02-05T07:03:08.699Z,1.50
2019-02-05T07:05:36.937Z,1.50
2019-02-05T07:08:04.764Z,1.50
2019-02-05T07:10:32.524Z,1.50
2019-02-05T07:13:00.272Z,1.50
2019-02-05T07:15:31.234Z,1.40
2019-02-05T07:18:02.048Z,1.30
2019-02-05T07:20:29.823Z,1.30
2019-02-05T07:22:57.596Z,1.30
2019-02-05T07:25:25.425Z,1.40
2019-02-05T07:27:53.177Z,1.40
2019-02-05T07:30:22.438Z,1.40
2019-02-05T07:32:50.258Z,1.50
2019-02-05T07:35:18.058Z,1.60
2019-02-05T07:37:46.258Z,1.60
2019-02-05T07:40:16.281Z,1.70
2019-02-05T07:42:44.085Z,1.80
2019-02-05T07:45:15.564Z,1.80
2019-02-05T07:47:43.432Z,1.90
2019-02-05T07:50:15.642Z,2.00
2019-02-05T07:52:43.932Z,2.00
2019-02-05T07:55:12.067Z,2.00
2019-02-05T07:57:40.158Z,2.10
2019-02-05T08:00:13.872Z,1.90
2019-02-05T08:02:41.644Z,2.10
2019-02-05T08:05:14.606Z,2.20
2019-02-05T08:07:42.468Z,2.30
2019-02-05T08:10:11.977Z,2.20
2019-02-05T08:12:39.763Z,2.30
2019-02-05T08:15:10.854Z,2.30
2019-02-05T08:17:39.057Z,2.50
2019-02-05T08:20:07.159Z,2.60
2019-02-05T08:22:35.310Z,2.80
2019-02-05T08:25:03.370Z,2.90
2019-02-05T08:27:31.120Z,2.90
2019-02-05T08:30:01.229Z,2.90
2019-02-05T08:32:29.263Z,2.90
2019-02-05T08:34:57.362Z,2.80
2019-02-05T08:37:25.144Z,3.00
2019-02-05T08:39:52.958Z,3.10
2019-02-05T08:42:20.711Z,3.10
2019-02-05T08:44:48.531Z,3.10
2019-02-05T08:47:16.307Z,3.20
2019-02-05T08:49:44.075Z,3.30
2019-02-05T08:52:11.979Z,3.40
2019-02-05T08:54:40.095Z,3.60
2019-02-05T08:57:07.903Z,3.60
2019-02-05T08:59:35.661Z,3.40
2019-02-05T09:02:03.635Z,3.40
2019-02-05T09:04:31.448Z,3.60
2019-02-05T09:06:59.187Z,3.50
2019-02-05T09:09:26.982Z,3.60
2019-02-05T09:11:54.825Z,3.50
2019-02-05T09:14:22.883Z,3.60
2019-02-05T09:16:50.693Z,3.60
2019-02-05T09:19:18.467Z,3.80
2019-02-05T09:21:46.313Z,3.90
2019-02-05T09:24:14.069Z,4.10
2019-02-05T09:26:41.855Z,4.20
2019-02-05T09:29:09.675Z,4.30
2019-02-05T09:31:37.571Z,4.50
2019-02-05T09:34:05.374Z,4.70
2019-02-05T09:36:33.196Z,4.90
2019-02-05T09:39:00.997Z,5.10
2019-02-05T09:41:28.860Z,5.30
2019-02-05T09:44:00.315Z,5.50
2019-02-05T09:46:28.128Z,5.40
2019-02-05T09:48:55.927Z,5.50
2019-02-05T09:51:24.032Z,5.60
2019-02-05T09:53:51.792Z,5.50
2019-02-05T09:56:19.578Z,5.40
2019-02-05T09:58:47.371Z,5.30
2019-02-05T10:01:15.184Z,5.20
2019-02-05T10:03:42.961Z,5.10
2019-02-05T10:06:10.777Z,4.60
2019-02-05T10:08:38.601Z,4.50
2019-02-05T10:11:06.353Z,4.60
2019-02-05T10:13:34.112Z,4.70
2019-02-05T10:16:02.003Z,4.70
2019-02-05T10:18:29.903Z,4.70
2019-02-05T10:20:57.758Z,4.60
2019-02-05T10:23:25.520Z,4.60
2019-02-05T10:25:53.286Z,4.60
2019-02-05T10:28:21.434Z,4.60
2019-02-05T10:30:49.298Z,4.60
2019-02-05T10:33:17.070Z,4.50
2019-02-05T10:35:45.110Z,4.60
2019-02-05T10:38:12.884Z,4.70
2019-02-05T10:40:40.656Z,4.70
2019-02-05T10:43:08.539Z,4.80
2019-02-05T10:45:36.903Z,4.80
2019-02-05T10:48:07.436Z,4.90
2019-02-05T10:50:35.288Z,4.90
2019-02-05T10:53:03.910Z,4.90
2019-02-05T10:55:31.830Z,4.80
2019-02-05T10:57:59.668Z,4.70
2019-02-05T11:00:29.299Z,4.60
2019-02-05T11:02:59.495Z,4.60
2019-02-05T11:05:29.407Z,4.60
2019-02-05T11:07:57.459Z,4.60
2019-02-05T11:10:25.247Z,4.60
2019-02-05T11:12:53.025Z,4.50
2019-02-05T11:15:24.047Z,4.60
2019-02-05T11:17:51.813Z,4.60
2019-02-05T11:20:22.349Z,4.60
2019-02-05T11:22:50.497Z,4.60
2019-02-05T11:25:20.898Z,4.70
2019-02-05T11:27:48.886Z,4.70
2019-02-05T11:30:38.294Z,4.70
2019-02-05T11:33:06.375Z,4.70
2019-02-05T11:35:34.254Z,4.70
2019-02-05T11:38:02.344Z,4.60
2019-02-05T11:40:32.318Z,4.60
2019-02-05T11:43:00.174Z,4.70
2019-02-05T11:45:28.379Z,4.70
2019-02-05T11:47:57.920Z,4.80
2019-02-05T11:50:25.828Z,4.90
2019-02-05T11:52:53.871Z,4.80
2019-02-05T11:55:23.758Z,4.90
2019-02-05T11:57:51.606Z,5.00
2019-02-05T12:00:32.864Z,5.00
2019-02-05T12:02:59.122Z,5.20
2019-02-05T12:05:26.929Z,5.40
2019-02-05T12:07:55.082Z,5.50
2019-02-05T12:10:22.968Z,5.60
2019-02-05T12:12:50.761Z,5.80
2019-02-05T12:15:18.878Z,6.10
2019-02-05T12:17:46.660Z,6.20
2019-02-05T12:20:14.530Z,6.40
2019-02-05T12:22:42.493Z,6.50
2019-02-05T12:25:13.505Z,6.70
2019-02-05T12:27:41.474Z,7.00
2019-02-05T12:30:17.818Z,7.00
2019-02-05T12:32:45.764Z,7.00
2019-02-05T12:35:13.657Z,7.00
2019-02-05T12:37:41.474Z,6.90
2019-02-05T12:40:10.843Z,6.60
2019-02-05T12:42:38.946Z,6.50
2019-02-05T12:45:10.707Z,6.40
2019-02-05T12:47:38.492Z,6.50
2019-02-05T12:50:14.615Z,6.60
2019-02-05T12:52:42.427Z,6.60
2019-02-05T12:55:16.254Z,6.90
2019-02-05T12:57:39.994Z,7.20
2019-02-05T13:00:15.798Z,7.00
2019-02-05T13:02:43.704Z,7.10
2019-02-05T13:05:11.989Z,7.30
2019-02-05T13:07:39.819Z,7.30
2019-02-05T13:10:10.752Z,7.50
2019-02-05T13:12:38.864Z,7.60
2019-02-05T13:15:07.447Z,7.40
2019-02-05T13:17:35.412Z,7.00
2019-02-05T13:20:06.829Z,7.00
2019-02-05T13:22:34.747Z,6.80
2019-02-05T13:25:03.463Z,6.60
2019-02-05T13:27:31.671Z,6.60
2019-02-05T13:29:59.453Z,6.60
2019-02-05T13:32:27.417Z,6.50
2019-02-05T13:34:55.539Z,6.60
2019-02-05T13:37:23.311Z,6.60
2019-02-05T13:39:51.109Z,6.70
2019-02-05T13:42:18.888Z,6.60
2019-02-05T13:44:46.906Z,6.80
2019-02-05T13:47:14.928Z,6.70
2019-02-05T13:49:42.734Z,6.80
2019-02-05T13:52:10.834Z,6.80
2019-02-05T13:54:38.602Z,6.80
2019-02-05T13:57:06.418Z,6.80
2019-02-05T13:59:34.206Z,6.60
2019-02-05T14:02:02.013Z,6.40
2019-02-05T14:04:29.827Z,6.40
2019-02-05T14:06:57.756Z,6.40
2019-02-05T14:09:25.722Z,6.30
2019-02-05T14:11:53.517Z,6.30
2019-02-05T14:14:23.104Z,6.10
2019-02-05T14:16:50.889Z,6.00
2019-02-05T14:19:18.838Z,5.80
2019-02-05T14:21:46.792Z,5.80
2019-02-05T14:24:14.627Z,5.70
2019-02-05T14:26:42.418Z,5.60
2019-02-05T14:29:12.235Z,5.60
2019-02-05T14:31:39.994Z,5.50
2019-02-05T14:34:07.770Z,5.50
2019-02-05T14:36:35.687Z,5.50
2019-02-05T14:39:08.154Z,5.40
2019-02-05T14:41:36.013Z,5.30
2019-02-05T14:44:04.596Z,5.30
2019-02-05T14:46:32.472Z,5.20
2019-02-05T14:49:00.403Z,5.30
2019-02-05T14:51:28.410Z,5.30
2019-02-05T14:53:56.674Z,5.30
2019-02-05T14:56:24.435Z,5.30
2019-02-05T14:58:52.389Z,5.30
2019-02-05T15:01:20.147Z,5.20
2019-02-05T15:03:47.914Z,5.20
2019-02-05T15:06:15.719Z,5.10
2019-02-05T15:08:43.519Z,5.20
2019-02-05T15:11:11.291Z,5.20
2019-02-05T15:13:39.229Z,5.10
2019-02-05T15:16:06.977Z,5.10
2019-02-05T15:18:34.949Z,5.10
2019-02-05T15:21:02.750Z,5.00
2019-02-05T15:23:30.520Z,5.00
2019-02-05T15:25:58.345Z,5.00
2019-02-05T15:28:26.087Z,4.90
2019-02-05T15:30:53.863Z,4.90
2019-02-05T15:33:41.409Z,4.90
2019-02-05T15:36:31.619Z,4.90
2019-02-05T15:38:59.491Z,4.90
2019-02-05T15:41:27.304Z,4.90
2019-02-05T15:43:55.046Z,4.90
2019-02-05T15:46:22.794Z,4.90
2019-02-05T15:48:50.924Z,4.80
2019-02-05T15:51:18.699Z,4.80
2019-02-05T15:53:46.731Z,4.70
2019-02-05T15:56:14.507Z,4.80
2019-02-05T15:58:42.487Z,4.80
2019-02-05T16:01:10.429Z,4.70
2019-02-05T16:03:38.172Z,4.70
2019-02-05T16:06:06.304Z,4.70
2019-02-05T16:08:34.056Z,4.70
2019-02-05T16:11:01.983Z,4.60
2019-02-05T16:13:29.930Z,4.60
2019-02-05T16:15:57.903Z,4.50
2019-02-05T16:18:25.722Z,4.40
2019-02-05T16:20:53.712Z,4.40
2019-02-05T16:23:21.705Z,4.30
2019-02-05T16:25:49.658Z,4.30
2019-02-05T16:28:17.488Z,4.30
2019-02-05T16:30:45.422Z,4.30
2019-02-05T16:33:13.220Z,4.20
2019-02-05T16:35:41.119Z,4.20
2019-02-05T16:38:09.018Z,4.20
2019-02-05T16:40:37.283Z,4.10
2019-02-05T16:43:05.344Z,4.20
2019-02-05T16:45:33.175Z,4.20
2019-02-05T16:48:00.977Z,4.10
2019-02-05T16:50:32.703Z,4.20
2019-02-05T16:53:00.496Z,4.10
2019-02-05T16:55:28.838Z,4.10
2019-02-05T16:57:56.656Z,4.10
2019-02-05T17:00:30.284Z,4.10
2019-02-05T17:02:58.206Z,4.00
2019-02-05T17:05:27.691Z,4.00
2019-02-05T17:07:55.687Z,3.90
2019-02-05T17:10:23.830Z,3.90
2019-02-05T17:12:51.908Z,3.80
2019-02-05T17:15:19.759Z,3.80
2019-02-05T17:17:47.501Z,3.70
2019-02-05T17:20:21.875Z,3.60
2019-02-05T17:22:50.366Z,3.60
2019-02-05T17:25:19.401Z,3.50
2019-02-05T17:27:47.825Z,3.50
2019-02-05T17:30:24.782Z,3.50
2019-02-05T17:32:52.545Z,3.50
2019-02-05T17:35:20.373Z,3.60
2019-02-05T17:37:49.619Z,3.60
2019-02-05T17:40:19.641Z,3.60
2019-02-05T17:42:48.007Z,3.60
2019-02-05T17:45:21.813Z,3.50
2019-02-05T17:47:50.131Z,3.50
2019-02-05T17:50:18.053Z,3.50
2019-02-05T17:52:45.920Z,3.40
2019-02-05T17:55:14.187Z,3.50
2019-02-05T17:57:42.065Z,3.40
2019-02-05T18:00:28.807Z,3.50
2019-02-05T18:02:56.615Z,3.50
2019-02-05T18:05:24.541Z,3.50
2019-02-05T18:07:52.738Z,3.50
2019-02-05T18:10:23.913Z,3.50
2019-02-05T18:12:51.777Z,3.50
2019-02-05T18:15:23.371Z,3.50
2019-02-05T18:17:51.605Z,3.50
2019-02-05T18:20:19.416Z,3.40
2019-02-05T18:22:47.215Z,3.40
2019-02-05T18:25:16.234Z,3.40
2019-02-05T18:27:44.140Z,3.40
2019-02-05T18:30:21.836Z,3.40
2019-02-05T18:32:49.720Z,3.30
2019-02-05T18:35:17.516Z,3.30
2019-02-05T18:37:46.618Z,3.30
2019-02-05T18:40:16.023Z,3.30
2019-02-05T18:42:43.775Z,3.20
2019-02-05T18:45:13.804Z,3.30
2019-02-05T18:47:41.537Z,3.20
2019-02-05T18:50:12.988Z,3.30
2019-02-05T18:52:41.219Z,3.20
2019-02-05T18:55:10.634Z,3.20
2019-02-05T18:57:38.672Z,3.10
2019-02-05T19:00:16.020Z,3.10
2019-02-05T19:02:43.869Z,3.00
2019-02-05T19:05:12.040Z,2.90
2019-02-05T19:07:40.172Z,2.80
2019-02-05T19:10:10.831Z,2.70
2019-02-05T19:12:38.599Z,2.60
2019-02-05T19:15:13.245Z,2.60
2019-02-05T19:17:41.055Z,2.50
2019-02-05T19:20:09.068Z,2.40
2019-02-05T19:22:37.243Z,2.30
2019-02-05T19:25:25.595Z,2.30
2019-02-05T19:27:53.391Z,2.20
2019-02-05T19:30:23.372Z,2.10
2019-02-05T19:32:51.148Z,2.10
2019-02-05T19:35:19.235Z,2.00
2019-02-05T19:37:47.173Z,2.00
2019-02-05T19:40:15.277Z,2.00
2019-02-05T19:42:43.065Z,2.00
2019-02-05T19:45:39.503Z,2.00
2019-02-05T19:48:11.327Z,2.00
2019-02-05T19:50:39.151Z,1.90
2019-02-05T19:53:06.918Z,1.90
2019-02-05T19:55:34.828Z,1.90
2019-02-05T19:58:02.585Z,1.80
2019-02-05T20:00:30.370Z,1.90
2019-02-05T20:02:58.146Z,1.90
2019-02-05T20:05:26.021Z,1.90
2019-02-05T20:07:53.843Z,1.90
2019-02-05T20:10:21.751Z,1.90
2019-02-05T20:12:49.556Z,2.00
2019-02-05T20:15:19.623Z,2.10
2019-02-05T20:17:47.322Z,2.10
2019-02-05T20:20:15.322Z,2.20
2019-02-05T20:22:43.254Z,2.20
2019-02-05T20:25:12.426Z,2.30
2019-02-05T20:27:40.278Z,2.40
2019-02-05T20:30:11.719Z,2.40
2019-02-05T20:32:39.540Z,2.50
2019-02-05T20:35:07.596Z,2.50
2019-02-05T20:37:36.328Z,2.50
2019-02-05T20:40:10.641Z,2.60
2019-02-05T20:42:38.420Z,2.70
2019-02-05T20:45:07.394Z,2.70
2019-02-05T20:47:35.123Z,2.80
2019-02-05T20:50:04.976Z,2.80
2019-02-05T20:52:32.746Z,2.80
2019-02-05T20:55:00.587Z,2.80
2019-02-05T20:57:28.396Z,2.80
2019-02-05T20:59:56.300Z,2.80
2019-02-05T21:02:24.081Z,2.80
2019-02-05T21:04:51.950Z,2.80
2019-02-05T21:07:19.752Z,2.80
2019-02-05T21:09:47.566Z,2.90
2019-02-05T21:12:15.338Z,2.90
2019-02-05T21:14:43.154Z,2.90
2019-02-05T21:17:11.278Z,2.90
2019-02-05T21:19:39.070Z,2.90
2019-02-05T21:22:08.889Z,2.90
2019-02-05T21:24:36.663Z,2.90
2019-02-05T21:27:04.475Z,2.90
2019-02-05T21:29:32.271Z,2.90
2019-02-05T21:32:00.089Z,2.90
2019-02-05T21:34:27.935Z,2.90
2019-02-05T21:36:55.719Z,2.90
2019-02-05T21:39:23.492Z,2.90
2019-02-05T21:41:54.034Z,3.00
2019-02-05T21:44:21.785Z,3.00
2019-02-05T21:46:49.575Z,3.00
2019-02-05T21:49:17.336Z,3.00
2019-02-05T21:51:45.457Z,3.00
2019-02-05T21:54:13.271Z,3.00
2019-02-05T21:56:41.180Z,3.00
2019-02-05T21:59:08.982Z,3.00
2019-02-05T22:01:36.782Z,3.00
2019-02-05T22:04:04.716Z,3.00
2019-02-05T22:06:32.778Z,3.00
2019-02-05T22:09:00.622Z,3.10
2019-02-05T22:11:28.821Z,3.00
2019-02-05T22:13:56.680Z,3.00
2019-02-05T22:16:24.485Z,3.00
2019-02-05T22:18:52.248Z,3.00
2019-02-05T22:21:20.280Z,2.90
2019-02-05T22:23:48.040Z,2.80
2019-02-05T22:26:15.782Z,2.80
2019-02-05T22:28:43.573Z,2.70
2019-02-05T22:31:11.357Z,2.70
2019-02-05T22:33:39.175Z,2.70
2019-02-05T22:36:07.334Z,2.60
2019-02-05T22:38:36.486Z,2.70
2019-02-05T22:41:04.336Z,2.70
2019-02-05T22:43:32.110Z,2.70
2019-02-05T22:46:00.023Z,2.80
2019-02-05T22:48:28.089Z,2.80
2019-02-05T22:50:55.890Z,2.80
2019-02-05T22:53:23.946Z,2.80
2019-02-05T22:55:51.713Z,2.80
2019-02-05T22:58:20.104Z,2.80
2019-02-05T23:01:28.275Z,2.80
2019-02-05T23:04:19.723Z,2.80
2019-02-05T23:07:06.551Z,2.80
2019-02-05T23:09:52.861Z,2.90
2019-02-05T23:12:52.572Z,2.90
2019-02-05T23:15:23.152Z,3.00
2019-02-05T23:17:50.953Z,3.00
2019-02-05T23:20:21.171Z,3.00
2019-02-05T23:22:49.489Z,3.00
2019-02-05T23:25:17.317Z,3.00
2019-02-05T23:27:45.229Z,3.00
2019-02-05T23:30:22.629Z,3.00
2019-02-05T23:32:50.435Z,3.00
2019-02-05T23:35:18.317Z,3.00
2019-02-05T23:37:46.399Z,3.00
2019-02-05T23:40:14.529Z,3.10
2019-02-05T23:42:42.293Z,3.00
2019-02-05T23:45:10.765Z,2.90
2019-02-05T23:47:38.738Z,2.90
2019-02-05T23:50:10.031Z,3.00
2019-02-05T23:52:37.967Z,3.00
2019-02-05T23:55:08.302Z,2.90
2019-02-05T23:57:36.075Z,2.90
